sensor_id;sensor_type;location;lat;lon;timestamp;pressure;altitude;pressure_sealevel;temperature;humidity
39309;BME280;26019;47.510;19.122;2023-07-13T00:08:34;100020.50;;;23.61;100.00
39309;BME280;26019;47.510;19.122;2023-07-13T00:18:37;99977.78;;;23.29;100.00
39309;BME280;26019;47.510;19.122;2023-07-13T00:28:39;99947.97;;;23.14;100.00
39309;BME280;26019;47.510;19.122;2023-07-13T00:38:41;99897.91;;;22.86;100.00
39309;BME280;26019;47.510;19.122;2023-07-13T00:48:45;99871.41;;;22.75;100.00
39309;BME280;26019;47.510;19.122;2023-07-13T00:58:49;99856.66;;;22.58;100.00
39309;BME280;26019;47.510;19.122;2023-07-13T01:08:51;99843.03;;;22.36;100.00
39309;BME280;26019;47.510;19.122;2023-07-13T01:18:54;99846.19;;;22.43;100.00
39309;BME280;26019;47.510;19.122;2023-07-13T01:28:59;99857.47;;;22.45;100.00
39309;BME280;26019;47.510;19.122;2023-07-13T01:39:02;99863.66;;;22.30;100.00
39309;BME280;26019;47.510;19.122;2023-07-13T01:49:03;99831.91;;;22.18;100.00
39309;BME280;26019;47.510;19.122;2023-07-13T01:59:05;99827.41;;;21.91;100.00
39309;BME280;26019;47.510;19.122;2023-07-13T02:09:07;99801.88;;;21.79;100.00
39309;BME280;26019;47.510;19.122;2023-07-13T02:19:29;99826.03;;;21.55;100.00
39309;BME280;26019;47.510;19.122;2023-07-13T02:29:30;99824.53;;;21.51;100.00
39309;BME280;26019;47.510;19.122;2023-07-13T02:39:32;99836.94;;;21.49;100.00
39309;BME280;26019;47.510;19.122;2023-07-13T02:49:34;99822.84;;;21.50;100.00
39309;BME280;26019;47.510;19.122;2023-07-13T02:59:36;99835.78;;;21.39;100.00
39309;BME280;26019;47.510;19.122;2023-07-13T03:09:39;99858.72;;;21.21;100.00
39309;BME280;26019;47.510;19.122;2023-07-13T03:19:41;99871.19;;;21.17;100.00
39309;BME280;26019;47.510;19.122;2023-07-13T03:29:43;99854.16;;;21.39;100.00
39309;BME280;26019;47.510;19.122;2023-07-13T03:39:45;99842.22;;;21.63;100.00
39309;BME280;26019;47.510;19.122;2023-07-13T03:49:48;99877.09;;;21.82;100.00
39309;BME280;26019;47.510;19.122;2023-07-13T03:59:50;99869.47;;;22.20;100.00
39309;BME280;26019;47.510;19.122;2023-07-13T04:09:52;99877.75;;;22.29;100.00
39309;BME280;26019;47.510;19.122;2023-07-13T04:19:53;99947.69;;;22.18;100.00
39309;BME280;26019;47.510;19.122;2023-07-13T04:29:55;99945.63;;;22.09;100.00
39309;BME280;26019;47.510;19.122;2023-07-13T04:39:58;99970.88;;;22.12;100.00
39309;BME280;26019;47.510;19.122;2023-07-13T04:50:02;99982.22;;;21.98;100.00
39309;BME280;26019;47.510;19.122;2023-07-13T05:00:04;100002.50;;;21.96;100.00
39309;BME280;26019;47.510;19.122;2023-07-13T05:10:13;100064.00;;;21.62;100.00
39309;BME280;26019;47.510;19.122;2023-07-13T05:20:18;100150.59;;;21.16;100.00
39309;BME280;26019;47.510;19.122;2023-07-13T05:30:19;100149.50;;;19.39;100.00
39309;BME280;26019;47.510;19.122;2023-07-13T05:40:22;100146.84;;;19.01;100.00
39309;BME280;26019;47.510;19.122;2023-07-13T05:50:26;100165.34;;;18.76;100.00
39309;BME280;26019;47.510;19.122;2023-07-13T06:00:28;59678.94;;;-147.84;100.00
39309;BME280;26019;47.510;19.122;2023-07-13T06:10:35;59678.94;;;-147.84;100.00
39309;BME280;26019;47.510;19.122;2023-07-13T06:20:37;59678.94;;;-147.84;100.00
39309;BME280;26019;47.510;19.122;2023-07-13T06:30:46;59678.94;;;-147.84;100.00
39309;BME280;26019;47.510;19.122;2023-07-13T06:40:48;59678.94;;;-147.84;100.00
39309;BME280;26019;47.510;19.122;2023-07-13T06:50:50;59678.94;;;-147.84;100.00
39309;BME280;26019;47.510;19.122;2023-07-13T07:00:53;59678.94;;;-147.84;100.00
39309;BME280;26019;47.510;19.122;2023-07-13T07:10:58;59678.94;;;-147.84;100.00
39309;BME280;26019;47.510;19.122;2023-07-13T07:21:00;59678.94;;;-147.84;100.00
39309;BME280;26019;47.510;19.122;2023-07-13T07:31:02;59678.94;;;-147.84;100.00
39309;BME280;26019;47.510;19.122;2023-07-13T07:41:06;59678.94;;;-147.84;100.00
39309;BME280;26019;47.510;19.122;2023-07-13T07:51:11;59678.94;;;-147.84;100.00
39309;BME280;26019;47.510;19.122;2023-07-13T08:01:13;59678.94;;;-147.84;100.00
39309;BME280;26019;47.510;19.122;2023-07-13T08:11:17;59678.94;;;-147.84;100.00
39309;BME280;26019;47.510;19.122;2023-07-13T08:21:22;59678.94;;;-147.84;100.00
39309;BME280;26019;47.510;19.122;2023-07-13T08:31:25;59678.94;;;-147.84;100.00
39309;BME280;26019;47.510;19.122;2023-07-13T08:41:28;59678.94;;;-147.84;100.00
39309;BME280;26019;47.510;19.122;2023-07-13T08:51:35;59678.94;;;-147.84;100.00
39309;BME280;26019;47.510;19.122;2023-07-13T09:02:00;59678.94;;;-147.84;100.00
39309;BME280;26019;47.510;19.122;2023-07-13T09:22:21;59678.94;;;-147.84;100.00
39309;BME280;26019;47.510;19.122;2023-07-13T09:32:27;59678.94;;;-147.84;100.00
39309;BME280;26019;47.510;19.122;2023-07-13T09:42:34;59678.94;;;-147.84;100.00
39309;BME280;26019;47.510;19.122;2023-07-13T09:52:45;59678.94;;;-147.84;100.00
39309;BME280;26019;47.510;19.122;2023-07-13T10:03:04;59678.94;;;-147.84;100.00
39309;BME280;26019;47.510;19.122;2023-07-13T10:13:46;59678.94;;;-147.84;100.00
39309;BME280;26019;47.510;19.122;2023-07-13T10:23:52;59678.94;;;-147.84;100.00
39309;BME280;26019;47.510;19.122;2023-07-13T10:33:56;59678.94;;;-147.84;100.00
39309;BME280;26019;47.510;19.122;2023-07-13T10:43:58;59678.94;;;-147.84;100.00
39309;BME280;26019;47.510;19.122;2023-07-13T11:04:19;59678.94;;;-147.84;100.00
39309;BME280;26019;47.510;19.122;2023-07-13T11:15:06;59678.94;;;-147.84;100.00
39309;BME280;26019;47.510;19.122;2023-07-13T11:25:02;59678.94;;;-147.84;100.00
39309;BME280;26019;47.510;19.122;2023-07-13T11:35:23;59678.94;;;-147.84;100.00
39309;BME280;26019;47.510;19.122;2023-07-13T11:45:27;59678.94;;;-147.84;100.00
39309;BME280;26019;47.510;19.122;2023-07-13T11:55:44;59678.94;;;-147.84;100.00
39309;BME280;26019;47.510;19.122;2023-07-13T12:06:05;59678.94;;;-147.84;100.00
39309;BME280;26019;47.510;19.122;2023-07-13T12:16:28;59678.94;;;-147.84;100.00
39309;BME280;26019;47.510;19.122;2023-07-13T12:26:32;59678.94;;;-147.84;100.00
39309;BME280;26019;47.510;19.122;2023-07-13T12:36:36;59678.94;;;-147.84;100.00
39309;BME280;26019;47.510;19.122;2023-07-13T12:46:52;59678.94;;;-147.84;100.00
39309;BME280;26019;47.510;19.122;2023-07-13T12:56:59;59678.94;;;-147.84;100.00
39309;BME280;26019;47.510;19.122;2023-07-13T13:07:03;59678.94;;;-147.84;100.00
39309;BME280;26019;47.510;19.122;2023-07-13T13:17:18;59678.94;;;-147.84;100.00
39309;BME280;26019;47.510;19.122;2023-07-13T13:27:22;59678.94;;;-147.84;100.00
39309;BME280;26019;47.510;19.122;2023-07-13T13:37:27;59678.94;;;-147.84;100.00
39309;BME280;26019;47.510;19.122;2023-07-13T13:47:31;59678.94;;;-147.84;100.00
39309;BME280;26019;47.510;19.122;2023-07-13T13:57:34;59678.94;;;-147.84;100.00
39309;BME280;26019;47.510;19.122;2023-07-13T14:07:36;59678.94;;;-147.84;100.00
39309;BME280;26019;47.510;19.122;2023-07-13T14:17:39;59678.94;;;-147.84;100.00
39309;BME280;26019;47.510;19.122;2023-07-13T14:27:49;59678.94;;;-147.84;100.00
39309;BME280;26019;47.510;19.122;2023-07-13T14:37:51;59678.94;;;-147.84;100.00
39309;BME280;26019;47.510;19.122;2023-07-13T14:47:56;59678.94;;;-147.84;100.00
39309;BME280;26019;47.510;19.122;2023-07-13T14:57:59;59678.94;;;-147.84;100.00
39309;BME280;26019;47.510;19.122;2023-07-13T15:08:03;59678.94;;;-147.84;100.00
39309;BME280;26019;47.510;19.122;2023-07-13T15:18:09;59678.94;;;-147.84;100.00
39309;BME280;26019;47.510;19.122;2023-07-13T15:28:13;59678.94;;;-147.84;100.00
39309;BME280;26019;47.510;19.122;2023-07-13T15:38:29;59678.94;;;-147.84;100.00
39309;BME280;26019;47.510;19.122;2023-07-13T15:48:31;59678.94;;;-147.84;100.00
39309;BME280;26019;47.510;19.122;2023-07-13T15:58:33;59678.94;;;-147.84;100.00
39309;BME280;26019;47.510;19.122;2023-07-13T16:08:36;59678.94;;;-147.84;100.00
39309;BME280;26019;47.510;19.122;2023-07-13T16:18:38;59678.94;;;-147.84;100.00
39309;BME280;26019;47.510;19.122;2023-07-13T16:28:40;59678.94;;;-147.84;100.00
39309;BME280;26019;47.510;19.122;2023-07-13T16:38:42;59678.94;;;-147.84;100.00
39309;BME280;26019;47.510;19.122;2023-07-13T16:48:44;59678.94;;;-147.84;100.00
39309;BME280;26019;47.510;19.122;2023-07-13T16:58:46;59678.94;;;-147.84;100.00
39309;BME280;26019;47.510;19.122;2023-07-13T17:08:48;59678.94;;;-147.84;100.00
39309;BME280;26019;47.510;19.122;2023-07-13T17:18:54;59678.94;;;-147.84;100.00
39309;BME280;26019;47.510;19.122;2023-07-13T17:29:00;59678.94;;;-147.84;100.00
39309;BME280;26019;47.510;19.122;2023-07-13T17:39:12;59678.94;;;-147.84;100.00
39309;BME280;26019;47.510;19.122;2023-07-13T17:49:20;59678.94;;;-147.84;100.00
39309;BME280;26019;47.510;19.122;2023-07-13T17:59:26;59678.94;;;-147.84;100.00
39309;BME280;26019;47.510;19.122;2023-07-13T18:09:29;59678.94;;;-147.84;100.00
39309;BME280;26019;47.510;19.122;2023-07-13T18:19:43;59678.94;;;-147.84;100.00
39309;BME280;26019;47.510;19.122;2023-07-13T18:29:46;59678.94;;;-147.84;100.00
39309;BME280;26019;47.510;19.122;2023-07-13T18:39:52;59678.94;;;-147.84;100.00
39309;BME280;26019;47.510;19.122;2023-07-13T18:49:54;59678.94;;;-147.84;100.00
39309;BME280;26019;47.510;19.122;2023-07-13T19:00:00;59678.94;;;-147.84;100.00
39309;BME280;26019;47.510;19.122;2023-07-13T19:10:12;59678.94;;;-147.84;100.00
39309;BME280;26019;47.510;19.122;2023-07-13T19:20:16;59678.94;;;-147.84;100.00
39309;BME280;26019;47.510;19.122;2023-07-13T19:30:24;59678.94;;;-147.84;100.00
39309;BME280;26019;47.510;19.122;2023-07-13T19:40:28;59678.94;;;-147.84;100.00
39309;BME280;26019;47.510;19.122;2023-07-13T19:50:31;59678.94;;;-147.84;100.00
39309;BME280;26019;47.510;19.122;2023-07-13T20:00:34;59678.94;;;-147.84;100.00
39309;BME280;26019;47.510;19.122;2023-07-13T20:10:36;59678.94;;;-147.84;100.00
39309;BME280;26019;47.510;19.122;2023-07-13T20:20:41;59678.94;;;-147.84;100.00
39309;BME280;26019;47.510;19.122;2023-07-13T20:30:48;59678.94;;;-147.84;100.00
39309;BME280;26019;47.510;19.122;2023-07-13T20:40:50;59678.94;;;-147.84;100.00
39309;BME280;26019;47.510;19.122;2023-07-13T20:50:57;59678.94;;;-147.84;100.00
39309;BME280;26019;47.510;19.122;2023-07-13T21:00:59;59678.94;;;-147.84;100.00
39309;BME280;26019;47.510;19.122;2023-07-13T21:11:01;59678.94;;;-147.84;100.00
39309;BME280;26019;47.510;19.122;2023-07-13T21:21:03;59678.94;;;-147.84;100.00
39309;BME280;26019;47.510;19.122;2023-07-13T21:31:08;59678.94;;;-147.84;100.00
39309;BME280;26019;47.510;19.122;2023-07-13T21:41:23;59678.94;;;-147.84;100.00
39309;BME280;26019;47.510;19.122;2023-07-13T21:51:26;59678.94;;;-147.84;100.00
39309;BME280;26019;47.510;19.122;2023-07-13T22:01:31;59678.94;;;-147.84;100.00
39309;BME280;26019;47.510;19.122;2023-07-13T22:11:36;59678.94;;;-147.84;100.00
39309;BME280;26019;47.510;19.122;2023-07-13T22:21:38;59678.94;;;-147.84;100.00
39309;BME280;26019;47.510;19.122;2023-07-13T22:31:41;59678.94;;;-147.84;100.00
39309;BME280;26019;47.510;19.122;2023-07-13T22:41:43;59678.94;;;-147.84;100.00
39309;BME280;26019;47.510;19.122;2023-07-13T22:51:47;59678.94;;;-147.84;100.00
39309;BME280;26019;47.510;19.122;2023-07-13T23:01:51;59678.94;;;-147.84;100.00
39309;BME280;26019;47.510;19.122;2023-07-13T23:11:54;59678.94;;;-147.84;100.00
39309;BME280;26019;47.510;19.122;2023-07-13T23:21:57;59678.94;;;-147.84;100.00
39309;BME280;26019;47.510;19.122;2023-07-13T23:32:08;59678.94;;;-147.84;100.00
39309;BME280;26019;47.510;19.122;2023-07-13T23:42:10;59678.94;;;-147.84;100.00
39309;BME280;26019;47.510;19.122;2023-07-13T23:52:13;59678.94;;;-147.84;100.00
